Denison, Texas
Current Conditions -  °F | °C
As of 10:55 AM on Tuesday 27 Jan 2015 (Local Time) from KGYI Reporting Station
Clear Clear  
Wind Chill: 67°   Ceiling: Unl
Heat Index: 67°   Visibility: 10mi
Dew Point: 44°   Wind: 0mph
Humidity: 43%   Direction: NA
Pressure: 30.2"   Gusts: NA
Location:  33.76°N, 96.54°W
Report Text: KGYI 271655Z AUTO 00000KT 10SM CLR 20/07 A3020 RMK AO2 T01960068
Loading
Personal Weather Stations






























Interactive Weather Map New forecast layout! Learn more

10-Day Weather Forecast

Advertisements
Track Severe Weather on mobile